Date,TemperatureHighF,TemperatureAvgF,TemperatureLowF,DewpointHighF,DewpointAvgF,DewpointLowF,HumidityHigh,HumidityAvg,HumidityLow,PressureMaxIn,PressureMinIn,WindSpeedMaxMPH,WindSpeedAvgMPH,GustSpeedMaxMPH,PrecipitationSumIn
2013-1-1,41.2,38.3,26.6,27.8,23.2,4.5,65,54,38,30.02,29.83,17,5,17,0.00
2013-1-2,35.1,28.0,22.7,14.1,8.4,4.5,52,43,35,30.17,30.00,14,5,14,0.00
2013-1-3,35.5,29.3,24.5,15.3,12.1,9.1,55,48,37,30.21,30.06,14,4,14,0.00
2013-1-4,41.0,35.6,31.9,22.5,18.6,15.8,56,50,43,30.09,29.95,17,5,17,0.00
2013-1-5,45.4,35.9,29.0,22.7,18.8,14.8,68,50,37,30.27,30.01,17,4,17,0.00
2013-1-6,48.2,39.1,31.0,33.3,27.2,21.7,81,63,46,30.23,27.09,12,3,12,0.00
2013-1-7,48.2,41.2,27.9,29.1,22.3,17.9,68,48,34,30.41,30.04,12,3,12,0.00
2013-1-8,52.2,38.0,25.0,31.5,25.4,16.1,80,61,44,30.45,30.35,17,3,17,0.00
2013-1-9,49.9,44.1,29.2,38.7,33.8,23.5,83,67,58,30.39,30.13,12,4,12,0.00
2013-1-10,50.0,44.4,36.7,32.2,23.6,21.0,57,44,32,30.53,30.22,15,5,15,0.00
2013-1-11,46.3,44.0,33.3,43.5,36.8,21.3,90,76,55,30.54,30.09,8,2,8,0.24
2013-1-12,49.1,44.8,43.6,46.9,42.6,40.6,94,92,90,30.15,30.06,8,4,8,0.05
2013-1-13,48.8,45.8,42.3,46.8,43.9,40.4,95,93,90,30.16,30.01,10,3,10,0.00
2013-1-14,56.7,50.9,37.1,54.1,44.7,17.7,94,81,45,30.15,29.61,14,4,14,0.02
2013-1-15,38.9,37.1,34.7,32.9,27.7,24.5,85,69,58,30.20,30.07,11,4,11,0.09
2013-1-16,37.4,34.4,33.3,34.8,30.1,26.8,90,84,71,30.08,29.69,9,3,9,0.44
2013-1-17,47.0,40.6,34.7,34.8,28.6,19.8,88,63,46,29.97,29.76,16,4,16,0.00
2013-1-18,34.7,29.5,25.0,19.8,7.8,-2.8,56,41,26,30.35,29.87,19,6,19,0.00
2013-1-19,52.7,42.7,29.7,34.5,26.1,10.4,67,52,33,30.26,29.80,21,7,21,0.00
2013-1-20,53.3,45.5,31.0,30.5,25.6,6.1,60,47,23,30.22,29.61,21,7,21,0.00
2013-1-21,33.5,29.5,24.3,16.8,8.7,0.6,55,41,32,30.30,30.01,16,3,16,0.00
2013-1-22,28.6,21.1,14.4,14.5,-1.8,-14.1,56,36,25,30.38,30.00,19,8,19,0.00
2013-1-23,22.1,16.1,12.1,-6.8,-12.4,-14.9,35,27,24,30.38,29.83,14,7,14,0.00
2013-1-24,25.0,17.3,9.4,-2.4,-6.7,-12.1,51,35,24,30.09,29.79,25,6,25,0.00
2013-1-25,24.8,18.5,13.7,12.3,-2.5,-10.8,68,40,28,30.11,29.76,14,4,14,0.00
2013-1-26,28.3,21.5,15.5,9.8,3.8,-1.7,63,47,28,30.07,29.73,66,5,66,0.02
2013-1-27,35.1,25.4,17.5,10.7,5.0,-0.7,57,42,25,30.22,30.06,14,3,14,0.00
2013-1-28,36.0,30.1,22.0,31.5,21.1,7.8,85,70,52,30.19,29.71,15,3,15,0.17
2013-1-29,51.7,41.8,36.0,42.0,36.5,31.4,89,81,62,29.85,29.69,11,2,11,0.09
2013-1-30,54.7,49.7,41.4,52.4,47.4,38.4,94,92,88,29.79,29.10,33,8,33,0.00
2013-1-31,57.6,45.6,30.2,55.3,33.1,6.5,95,65,33,29.47,28.76,37,12,37,0.26
2013-2-1,32.6,29.2,25.0,11.7,7.6,1.1,47,40,29,29.92,29.47,24,7,24,0.00
2013-2-2,31.5,25.0,19.6,16.5,5.9,1.0,71,45,28,30.01,29.76,18,4,18,0.00
2013-2-3,31.9,26.6,23.0,20.1,16.0,10.9,78,65,51,29.76,29.49,10,2,10,0.04
2013-2-4,33.5,28.3,23.6,18.7,7.3,3.0,65,41,29,29.68,29.50,19,6,19,0.00
2013-2-5,31.0,29.4,27.7,26.5,21.9,12.3,84,74,50,29.69,29.60,9,3,9,0.00
2013-2-6,41.0,34.3,28.3,28.9,21.0,2.0,86,62,30,30.06,29.60,15,4,15,0.01
2013-2-7,32.6,28.5,23.8,18.9,6.2,-1.1,60,39,28,30.23,30.05,9,3,9,0.00
2013-2-8,34.9,33.1,28.4,30.9,27.2,19.8,89,79,61,30.04,29.29,26,9,26,0.22
2013-2-9,31.9,26.7,22.1,24.9,18.3,7.8,86,71,52,30.00,29.42,24,8,24,0.11
2013-2-10,39.6,25.9,16.6,20.5,13.2,2.5,71,59,34,30.19,30.02,8,1,8,0.02
2013-2-11,45.9,38.9,27.0,44.0,35.6,18.9,94,88,71,30.03,29.36,14,2,14,0.43
2013-2-12,47.2,41.8,33.1,40.0,28.2,20.9,95,60,44,29.66,29.41,17,4,17,0.01
2013-2-13,48.1,35.9,24.7,28.3,22.6,17.3,79,60,38,29.65,29.39,8,2,8,0.00
2013-2-14,34.6,34.0,33.8,30.2,29.6,28.2,85,83,78,29.48,29.40,8,4,8,0.00
2013-2-15,52.2,41.3,29.7,36.1,32.2,25.2,84,71,49,29.73,29.62,9,3,9,0.00
2013-2-16,42.8,35.7,29.9,32.0,24.3,13.5,83,64,48,29.65,29.43,13,7,13,0.00
2013-2-17,33.3,27.2,17.5,14.5,0.8,-9.0,52,32,24,29.68,29.35,20,11,20,0.01
2013-2-18,29.9,22.3,17.5,4.5,-2.3,-7.3,40,33,28,29.94,29.69,24,9,24,0.00
2013-2-20,34.0,29.5,25.7,10.2,5.4,3.0,45,35,32,29.93,29.53,21,8,21,0.15
2013-2-21,36.2,28.9,24.1,11.8,8.1,5.1,52,41,31,30.00,29.68,24,9,24,0.00
2013-2-22,39.8,32.2,25.7,24.8,18.0,10.8,63,56,46,30.11,29.97,17,5,17,0.00
2013-2-23,44.3,38.5,35.8,41.2,34.8,27.1,90,87,68,29.99,29.50,14,5,14,0.20
2013-2-24,48.1,40.1,33.7,38.6,34.0,19.6,92,80,52,29.67,29.44,17,6,17,0.01
2013-2-25,48.2,38.5,30.8,27.1,22.6,19.5,65,53,37,29.92,29.67,13,4,13,0.00
2013-2-26,45.7,40.9,29.9,35.0,29.5,22.6,89,64,54,30.01,29.62,14,5,14,0.11
2013-2-27,50.6,44.9,36.9,47.3,41.9,34.0,93,89,75,29.63,29.19,24,8,24,0.59
2013-2-28,52.9,44.6,40.7,40.2,33.5,28.3,87,66,51,29.33,29.25,8,3,8,0.01
2013-3-1,46.3,42.0,35.1,30.4,27.0,24.1,75,55,47,29.48,29.31,12,5,12,0.01
2013-3-2,41.6,36.9,31.5,26.8,22.4,19.7,81,56,47,29.48,29.40,15,6,15,0.00
2013-3-3,41.8,35.3,28.6,25.1,19.0,14.8,79,52,39,29.45,29.35,14,6,14,0.00
2013-3-4,43.2,36.3,27.4,20.9,16.9,10.8,53,45,37,29.56,29.45,22,10,22,0.00
2013-3-5,49.0,39.0,31.3,28.1,22.8,17.2,63,53,37,29.72,29.59,16,5,16,0.00
2013-3-6,42.1,39.6,35.3,35.3,30.7,28.1,82,70,62,29.69,29.55,29,11,29,0.01
2013-3-7,38.2,34.1,32.8,31.6,28.6,26.5,87,80,71,29.77,29.61,26,11,26,0.06
2013-3-8,38.2,34.8,31.1,32.2,30.4,28.0,88,84,72,29.79,29.70,16,3,16,0.13
2013-3-9,54.2,39.5,30.6,27.1,23.1,16.4,74,54,23,30.03,29.86,12,4,12,0.01
2013-3-10,49.9,36.3,27.2,34.1,28.0,20.7,85,72,51,30.09,30.01,10,2,10,0.00
2013-3-11,53.1,43.0,39.1,46.7,37.6,33.4,86,81,63,30.04,29.81,16,4,16,0.00
2013-3-12,54.0,50.6,44.1,51.0,45.8,38.5,94,84,77,29.81,29.40,20,10,20,0.83
2013-3-13,53.1,46.4,34.0,39.2,28.3,18.1,89,53,27,29.58,29.49,14,5,14,0.00
2013-3-14,40.7,35.5,30.8,26.2,10.7,1.2,58,36,24,29.65,29.55,27,10,27,0.00
2013-3-15,45.2,36.2,29.7,23.3,11.8,2.5,44,36,27,29.68,29.43,21,7,21,0.00
2013-3-17,38.7,36.2,32.6,15.3,10.8,8.2,39,35,31,30.01,29.84,7,3,7,0.02
2013-3-18,37.3,32.2,26.3,29.4,16.0,3.9,86,54,33,30.12,29.79,14,5,14,0.00
2013-3-19,41.4,38.0,33.8,36.2,34.1,30.7,91,86,78,29.73,29.39,16,6,16,0.30
2013-3-20,48.2,38.7,32.8,30.7,17.8,12.6,77,44,26,29.59,29.50,15,6,15,0.00
2013-3-21,39.1,33.8,31.3,24.2,19.3,7.5,71,56,32,29.55,29.35,11,4,11,0.00
2013-3-22,43.0,37.7,29.2,18.2,14.8,9.4,53,39,32,29.55,29.43,14,5,14,0.00
2013-3-23,47.2,39.6,32.8,20.5,17.0,13.0,52,40,27,29.62,29.51,14,7,14,0.00
2013-3-24,47.5,41.4,31.0,24.8,19.5,14.7,57,42,33,29.64,29.42,10,4,10,0.00
2013-3-25,40.7,37.3,34.7,33.9,28.8,22.8,86,72,58,29.43,29.16,25,4,25,0.12
2013-3-26,36.0,35.8,35.6,31.4,31.2,31.0,83,83,83,29.29,29.28,2,1,2,0.00
2013-3-27,54.7,44.9,35.3,28.6,23.3,18.8,59,44,25,29.63,29.56,13,4,13,0.00
2013-3-28,50.9,44.2,36.7,31.3,28.5,24.9,67,54,45,29.81,29.66,11,5,11,0.00
2013-3-29,57.1,47.8,40.5,29.4,26.7,22.9,58,45,29,29.84,29.75,14,5,14,0.00
2013-3-30,59.4,47.2,36.7,30.6,26.8,20.4,71,48,23,29.87,29.78,11,4,11,0.00
2013-3-31,54.2,44.8,31.9,43.2,36.3,25.8,89,74,44,29.83,29.36,16,4,16,0.17
2013-4-1,64.6,50.5,43.6,45.7,40.7,31.5,91,72,36,29.48,29.31,21,5,21,0.01
2013-4-2,45.7,39.0,32.9,15.2,10.4,6.9,42,31,23,29.71,29.61,14,6,14,0.00
2013-4-3,48.4,40.8,36.2,14.2,10.2,6.7,32,28,23,29.99,29.79,20,10,20,0.00
2013-4-4,51.5,40.4,29.3,31.8,19.3,8.9,68,44,28,30.09,29.83,16,6,16,0.00
2013-4-5,41.9,41.6,41.4,31.2,28.1,23.0,66,59,47,29.80,29.67,10,5,10,0.00
2013-4-6,43.4,41.3,40.0,31.0,29.5,26.9,70,63,52,30.03,30.01,11,5,11,0.00
2013-4-7,53.3,46.9,38.7,45.0,37.4,29.1,88,70,55,30.01,29.73,23,9,23,0.00
2013-4-8,73.3,56.2,41.2,48.0,44.0,39.3,93,68,35,29.78,29.68,13,4,13,0.00
2013-4-9,83.7,72.8,49.5,54.9,44.8,34.1,95,41,18,29.72,29.60,17,4,17,0.35
2013-4-10,75.8,63.1,53.3,56.1,50.4,45.6,84,64,48,29.71,29.52,21,3,21,0.17
2013-4-11,60.8,54.0,47.5,56.4,48.5,39.7,99,82,66,29.76,29.47,11,4,11,0.01
2013-4-12,47.9,43.1,40.5,42.9,40.6,36.5,99,91,68,29.75,29.41,17,7,17,0.51
2013-4-13,40.9,40.8,40.7,40.6,40.5,40.4,99,99,99,29.46,29.44,10,5,10,0.00
2013-4-14,57.6,52.0,45.4,47.9,32.2,26.4,97,49,34,29.93,29.68,14,5,14,0.00
2013-4-15,55.6,45.5,40.9,34.0,30.8,28.3,70,57,41,30.09,29.93,9,1,9,0.00
2013-4-16,62.3,53.9,44.1,53.7,48.2,37.0,92,81,70,30.09,29.85,11,4,11,0.00
2013-4-17,68.6,62.9,52.6,54.2,40.4,33.1,93,46,28,29.99,29.82,14,4,14,0.02
2013-4-18,59.2,53.2,45.2,55.4,45.1,38.5,98,75,47,30.07,29.82,9,3,9,0.00
2013-4-19,68.0,59.5,54.0,63.7,58.0,53.2,99,95,78,29.81,29.37,15,6,15,0.00
2013-4-20,60.1,54.3,48.4,59.7,37.2,24.7,99,58,27,29.98,29.37,13,4,13,0.18
2013-4-21,48.1,43.8,37.8,32.8,24.5,20.3,67,47,38,30.33,29.98,13,4,13,0.00
2013-4-22,55.1,49.5,36.5,37.6,33.7,25.5,84,55,34,30.36,30.21,15,5,15,0.00
2013-4-23,50.8,46.6,41.2,42.8,40.3,33.7,91,79,71,30.20,29.84,16,7,16,0.00
2013-4-24,63.7,51.6,42.5,50.1,45.3,39.2,98,80,56,29.81,29.57,8,4,8,0.00
2013-4-25,63.9,58.5,47.7,52.3,29.4,22.5,97,36,21,29.91,29.58,17,4,17,0.00
2013-4-26,65.7,53.7,39.8,42.1,35.8,29.4,89,56,27,30.09,29.98,7,2,7,0.00
2013-4-27,68.2,62.4,46.1,38.6,29.0,23.8,64,30,19,30.13,30.00,9,4,9,0.00
2013-4-28,67.7,54.9,42.1,46.8,39.2,29.2,91,59,25,30.03,29.93,10,3,10,0.00
2013-4-29,57.6,54.9,53.3,50.0,47.2,44.7,83,76,64,29.95,29.90,6,2,6,0.00
2013-4-30,65.7,55.4,47.0,49.2,39.4,22.8,82,60,22,30.04,29.92,6,2,6,0.00
2013-5-1,67.7,50.8,42.5,47.3,37.9,31.8,81,62,34,30.16,30.03,7,1,7,0.00
2013-5-2,68.8,55.7,42.1,49.6,44.2,40.3,94,67,44,30.17,30.04,4,1,4,0.00
2013-5-3,53.5,52.0,50.0,45.6,41.9,37.9,77,69,58,30.15,30.08,11,2,11,0.00
2013-5-4,67.0,53.5,43.9,49.8,44.0,40.6,96,72,43,30.08,29.97,9,3,9,0.00
2013-5-5,62.6,51.2,43.0,46.9,42.0,38.8,87,72,50,30.01,29.93,8,3,8,0.00
2013-5-6,68.4,55.5,43.4,55.7,48.5,41.8,97,79,59,29.97,29.86,6,2,6,0.00
2013-5-7,73.4,60.9,47.9,60.5,54.6,46.2,95,81,61,29.87,29.80,7,1,7,0.01
2013-5-8,60.8,59.7,57.6,59.5,59.2,57.3,99,98,88,29.81,29.75,8,1,8,0.31
2013-5-9,67.1,61.0,54.4,61.6,57.9,53.5,99,90,80,29.96,29.60,7,0,7,0.38
2013-5-10,79.9,69.5,51.1,62.0,57.2,50.8,99,67,46,30.02,29.91,8,2,8,0.00
2013-5-11,67.5,61.7,59.8,63.6,60.4,56.3,99,95,85,29.92,29.72,14,2,14,0.28
2013-5-12,60.5,60.5,60.5,59.9,59.9,59.9,98,98,98,29.73,29.72,0,0,0,0.00
2013-5-13,58.3,51.1,45.9,34.1,30.5,22.7,60,46,29,30.12,29.97,9,3,9,0.00
2013-5-14,61.7,51.6,42.1,40.7,33.3,23.1,81,53,23,30.14,30.04,13,2,13,0.00
2013-5-15,64.8,57.1,42.3,55.7,48.5,39.0,92,74,51,30.10,29.71,13,4,13,0.00
2013-5-16,78.7,70.6,55.4,58.8,51.8,41.5,96,54,34,29.84,29.73,11,2,11,0.00
2013-5-17,73.3,64.9,57.2,52.0,43.6,40.2,81,47,32,30.12,29.85,14,4,14,0.00
2013-5-18,67.9,59.1,50.2,55.0,50.7,45.2,88,75,53,30.34,30.23,4,1,4,0.00
2013-5-19,58.9,57.6,55.8,58.4,56.3,48.7,99,96,69,30.35,30.19,7,2,7,0.26
2013-5-20,77.4,66.5,58.3,71.0,63.4,58.1,99,91,73,30.20,29.98,8,1,8,0.00
2013-5-21,84.2,76.8,60.7,72.9,68.1,59.8,99,76,64,30.00,29.85,9,3,9,0.00
2013-5-22,76.1,67.8,58.9,70.8,65.0,57.9,99,91,80,29.96,29.86,8,2,8,0.00
2013-5-23,75.8,69.1,63.7,70.1,65.9,62.9,99,90,78,29.93,29.79,12,5,12,0.04
2013-5-24,67.7,57.4,47.0,67.4,55.9,44.5,99,95,85,29.95,29.69,14,3,14,0.32
2013-5-25,52.7,47.9,44.5,48.5,44.6,39.9,98,89,64,29.98,29.89,14,5,14,0.46
2013-5-26,66.8,57.1,47.9,42.1,39.4,37.3,74,54,34,30.22,29.96,14,5,14,0.00
2013-5-27,72.0,58.5,42.3,49.7,43.6,38.2,91,62,31,30.26,30.15,8,1,8,0.00
2013-5-28,71.3,58.3,49.9,58.1,52.8,46.1,99,84,42,30.25,30.15,7,1,7,0.30
2013-5-29,79.6,64.2,56.5,70.1,61.5,56.3,99,92,68,30.15,30.02,5,1,5,0.01
2013-5-30,91.6,77.5,63.0,72.0,65.7,61.3,97,70,43,30.14,30.06,8,1,8,0.00
2013-5-31,91.8,78.1,65.2,72.5,66.7,62.7,95,70,44,30.15,30.02,8,1,8,0.00
2013-6-1,86.8,76.7,64.3,71.3,67.3,62.5,95,74,56,30.04,29.94,9,2,9,0.01
2013-6-2,81.7,73.6,65.3,69.8,66.4,63.3,94,78,65,29.95,29.80,8,3,8,0.00
2013-6-3,76.9,71.7,65.9,71.3,68.1,53.9,99,89,59,29.88,29.81,6,2,6,0.34
2013-6-4,76.0,67.2,57.4,54.4,47.6,42.8,70,51,31,30.13,29.87,11,3,11,0.00
2013-6-5,74.5,65.8,56.0,54.0,47.1,41.9,86,52,37,30.22,30.12,9,2,9,0.00
2013-6-6,71.6,64.2,56.7,60.7,56.5,47.1,96,78,44,30.17,30.04,9,2,9,0.01
2013-6-7,63.2,61.4,59.0,62.3,60.5,58.6,99,97,90,30.04,29.63,17,3,17,2.78
2013-6-8,78.5,67.4,56.3,66.7,62.3,56.1,99,85,64,30.06,29.52,13,2,17,0.80
2013-6-9,80.6,74.6,64.1,62.3,60.4,58.4,92,63,49,30.19,30.05,8,2,8,0.00
2013-6-10,72.7,65.8,63.2,67.5,63.9,60.5,99,94,80,30.18,29.85,12,2,12,0.69
2013-6-11,81.9,73.3,66.4,72.9,67.1,62.6,99,82,59,29.85,29.61,11,2,11,0.19
2013-6-12,76.1,72.8,61.9,60.1,55.1,53.1,82,55,47,29.87,29.72,14,4,14,0.00
2013-6-13,66.4,62.1,56.2,61.8,58.6,55.5,99,89,74,29.86,29.47,18,3,18,0.83
2013-6-14,72.7,60.3,53.3,58.6,54.7,52.5,99,83,58,29.85,29.52,19,5,19,0.22
2013-6-15,80.8,76.2,57.2,62.5,53.6,48.4,94,48,33,30.02,29.90,8,2,8,0.01
2013-6-16,81.4,76.4,58.7,67.6,62.2,52.3,92,63,40,30.01,29.78,8,2,8,0.00
2013-6-17,86.0,80.0,66.2,69.8,66.9,63.8,95,65,53,29.93,29.85,9,2,9,0.00
2013-6-18,83.9,74.9,64.1,70.5,67.3,62.6,98,78,56,29.93,29.83,8,2,8,0.24
2013-6-19,76.0,69.9,58.3,64.2,54.3,45.3,98,61,35,30.17,29.90,14,4,14,0.01
2013-6-20,79.2,73.7,55.4,60.8,57.2,53.4,93,57,48,30.30,30.21,10,3,10,0.00
2013-6-21,81.4,76.0,59.2,59.7,57.3,53.5,84,53,44,30.33,30.27,8,3,8,0.00
2013-6-22,74.0,74.0,74.0,57.3,57.3,57.3,56,56,56,30.28,30.28,4,4,4,0.00
2013-6-23,84.6,74.6,63.5,72.1,68.0,59.0,93,81,60,30.22,30.10,7,2,7,0.00
2013-6-24,93.6,80.9,71.8,76.6,71.5,65.7,97,75,48,30.10,29.95,8,2,8,0.02
2013-6-25,92.2,86.5,70.6,72.8,70.1,65.7,85,59,47,30.03,29.82,11,2,11,0.00
2013-6-26,87.1,82.3,74.5,71.3,68.7,66.6,88,65,53,29.89,29.80,6,2,6,0.00
2013-6-27,85.5,78.2,72.7,74.9,72.1,69.6,97,82,65,29.85,29.62,11,2,11,0.05
2013-6-28,85.3,79.1,71.8,73.4,71.7,69.7,96,78,64,29.62,29.51,10,4,10,0.01
2013-6-29,78.3,78.3,78.3,71.7,71.7,71.7,80,80,80,29.56,29.56,4,4,6,0.01
2013-6-30,79.6,72.0,69.1,74.3,69.8,67.6,96,93,85,29.85,29.74,4,0,4,0.00
2013-7-1,78.1,73.6,72.2,75.0,72.4,70.9,98,96,89,30.09,29.95,8,2,8,0.24
2013-7-2,82.4,75.1,72.4,76.0,72.7,71.0,97,92,81,30.24,30.09,6,2,6,0.08
2013-7-3,85.5,76.5,70.6,75.6,72.6,69.7,97,88,69,30.30,30.21,6,2,6,0.04
2013-7-4,88.6,79.9,73.8,76.8,74.2,72.2,98,84,65,30.30,30.19,7,2,7,0.01
2013-7-5,91.8,82.5,74.9,75.7,73.7,71.5,94,76,57,30.25,30.11,5,2,5,0.00
2013-7-6,94.0,85.6,76.9,76.2,72.9,70.4,89,68,48,30.17,30.05,7,1,7,0.00
2013-7-7,91.6,86.7,78.3,75.6,74.1,70.9,83,67,51,30.09,29.94,5,2,7,0.00
2013-7-8,89.3,81.7,74.9,71.4,69.0,66.0,80,66,51,30.07,29.99,6,2,6,0.00
2013-7-9,89.1,80.2,71.8,74.5,71.6,66.6,86,75,53,30.09,30.01,7,1,7,0.02
2013-7-10,86.4,78.6,72.7,76.7,73.2,70.3,93,84,71,30.04,29.83,6,1,6,0.26
2013-7-11,84.2,79.6,75.6,74.3,70.8,66.3,90,75,59,29.94,29.83,8,2,8,0.00
2013-7-12,76.3,71.4,68.2,70.4,67.9,64.2,98,89,74,30.12,29.94,11,4,11,0.28
2013-7-13,83.5,74.1,68.2,77.6,72.2,67.7,99,94,78,30.26,30.11,11,2,11,0.02
2013-7-14,91.8,84.2,73.4,77.2,74.1,71.2,97,73,55,30.35,27.24,8,2,8,0.00
2013-7-15,95.2,85.5,77.2,75.3,73.7,71.4,87,69,49,30.26,30.13,8,2,8,0.00
2013-7-16,93.8,85.1,77.0,74.4,69.4,65.7,87,61,43,30.21,30.13,11,2,11,0.00
2013-7-17,96.1,85.4,76.3,73.9,70.1,66.7,79,62,40,30.21,30.09,9,2,9,0.00
2013-7-18,97.7,91.1,77.6,77.0,73.4,66.6,85,58,39,30.09,29.96,9,2,9,0.00
2013-7-19,96.5,88.9,81.4,80.4,77.4,76.0,85,70,55,30.00,29.81,10,2,10,0.00
2013-7-20,94.3,87.0,79.4,76.5,72.7,52.1,78,64,47,29.86,29.75,9,2,9,0.07
2013-7-21,87.7,80.4,74.9,72.6,68.0,62.3,88,68,46,29.98,29.85,8,2,8,0.01
2013-7-22,83.0,76.9,73.4,77.8,74.2,70.9,96,91,79,29.98,29.82,9,2,9,0.46
2013-7-23,88.2,78.9,72.5,76.3,74.3,69.8,99,87,62,29.82,29.57,8,2,8,0.56
2013-7-24,83.3,76.8,69.5,75.4,67.6,56.4,97,75,54,29.95,29.63,11,2,11,0.01
2013-7-25,69.5,64.2,61.4,61.5,57.3,53.3,97,79,63,30.07,29.94,14,4,16,0.41
2013-7-26,79.9,69.8,61.7,65.4,62.5,61.0,98,79,54,30.05,30.00,10,3,10,0.02
2013-7-27,81.5,75.9,64.6,70.1,64.6,61.5,96,69,51,30.08,30.00,8,3,8,0.00
2013-7-28,78.7,74.9,66.4,71.6,68.9,65.1,97,82,66,30.02,29.95,8,3,8,0.01
2013-7-29,86.2,77.2,69.3,73.5,66.4,53.8,97,72,40,30.10,29.97,9,1,9,0.01
2013-7-30,81.0,73.3,61.9,62.9,58.2,55.1,87,60,42,30.18,30.10,11,2,11,0.00
2013-7-31,82.3,72.7,63.0,65.7,61.5,58.8,88,69,47,30.18,30.06,8,1,8,0.00
2013-8-1,76.0,70.6,67.3,69.6,66.8,62.6,97,88,71,30.07,29.84,8,2,8,0.18
2013-8-2,85.5,75.7,65.0,70.1,65.5,59.1,99,74,44,29.95,29.78,9,1,9,0.01
2013-8-3,78.8,72.8,68.9,68.8,63.2,57.8,85,72,57,29.97,29.89,7,1,7,0.00
2013-8-4,79.2,76.1,65.3,64.7,58.1,51.6,91,54,49,30.01,29.90,9,5,9,0.00
2013-8-5,77.0,69.4,60.1,58.0,51.4,45.7,78,55,35,30.10,30.00,11,2,11,0.00
2013-8-6,79.7,70.4,59.2,64.5,58.4,54.0,93,68,44,30.19,30.09,10,2,10,0.00
2013-8-7,78.8,72.1,65.5,68.8,64.4,59.9,87,77,62,30.21,30.12,10,2,10,0.00
2013-8-8,81.7,74.2,69.1,75.2,71.3,67.5,96,91,78,30.13,30.06,9,3,9,0.06
2013-8-9,85.1,77.8,74.0,76.8,74.5,72.5,97,90,75,30.08,29.84,9,3,9,0.01
2013-8-10,83.7,76.1,69.5,74.1,65.3,57.2,92,71,47,30.09,29.91,7,1,7,0.00
2013-8-11,81.9,71.7,60.3,64.4,57.2,52.0,87,62,39,30.17,30.08,8,1,8,0.00
2013-8-12,79.4,73.4,69.8,71.4,68.0,64.5,95,84,73,30.10,29.98,5,1,5,0.15
2013-8-13,74.7,71.0,67.7,72.9,69.3,66.7,98,94,83,29.98,29.76,6,1,6,0.57
2013-8-14,74.2,68.0,60.5,67.5,55.3,48.9,97,66,48,30.09,29.78,14,3,14,0.01
2013-8-15,77.8,72.9,55.8,56.8,51.8,47.2,88,49,35,30.19,30.10,8,2,9,0.00
2013-8-16,79.7,69.3,57.2,62.6,56.6,53.6,94,67,43,30.25,30.17,5,1,5,0.00
2013-8-17,81.5,70.2,59.0,63.2,58.8,56.4,93,69,43,30.33,30.26,4,1,4,0.00
2013-8-18,77.2,70.4,63.7,64.8,62.3,59.3,90,76,54,30.31,30.17,7,1,8,0.00
2013-8-19,73.1,64.6,63.4,63.7,59.3,58.5,94,83,66,30.18,29.81,7,0,7,0.00
2013-8-20,87.3,71.9,63.9,68.1,65.4,62.4,96,81,44,30.01,29.91,5,0,5,0.00
2013-8-21,88.9,77.2,66.6,71.3,66.5,61.1,96,73,42,30.06,29.94,7,1,7,0.00
2013-8-22,81.0,74.4,70.9,76.0,71.4,68.7,96,90,78,29.95,29.74,115,1,115,0.12
2013-8-23,80.3,73.9,68.8,69.5,61.7,54.8,96,68,43,29.98,29.73,12,3,12,0.00
2013-8-24,77.8,68.1,62.3,59.9,55.9,48.2,85,66,36,30.22,29.98,11,4,11,0.00
2013-8-25,83.7,70.2,57.4,64.9,56.9,49.7,96,67,33,30.27,30.11,8,1,8,0.00
2013-8-26,84.2,75.2,68.4,70.5,62.3,56.5,91,65,54,30.12,29.80,7,2,7,0.01
2013-8-27,83.9,76.7,71.1,71.2,69.6,67.5,93,80,61,29.80,29.69,14,3,14,0.05
2013-8-28,87.1,76.3,68.0,73.4,69.5,66.6,96,81,56,29.78,29.73,4,1,4,0.00
2013-8-29,79.0,73.2,70.2,69.9,67.4,65.1,95,83,65,29.92,29.77,11,3,11,0.00
2013-8-30,85.0,75.2,68.2,71.3,67.7,64.0,90,78,57,29.92,29.74,5,2,5,0.00
2013-8-31,84.6,77.2,72.4,74.2,71.8,69.3,91,84,69,29.77,29.69,6,2,6,0.00
2013-9-1,84.6,77.3,73.1,75.1,73.3,71.6,96,88,71,29.75,29.69,4,2,4,0.00
2013-9-2,80.6,76.1,72.5,76.9,74.1,70.8,99,94,84,29.70,29.59,4,1,4,0.09
2013-9-3,81.0,74.9,69.1,75.7,66.9,57.3,99,78,52,29.77,29.62,8,2,8,0.02
2013-9-4,81.5,72.6,64.6,60.1,58.1,53.8,81,62,41,29.87,29.75,8,2,8,0.00
2013-9-5,78.7,69.9,59.9,63.1,55.4,44.4,87,62,36,30.03,29.80,13,2,13,0.00
2013-9-6,69.7,62.4,54.7,49.4,45.5,41.9,80,55,37,30.14,30.02,12,3,12,0.00
2013-9-7,78.7,60.0,50.6,59.0,50.8,47.4,93,75,34,30.02,29.79,7,1,7,0.00
2013-9-8,81.2,70.7,63.7,65.6,57.2,45.6,85,64,37,29.97,29.69,13,2,13,0.00
2013-9-9,71.8,63.7,51.7,60.8,50.4,44.9,83,63,41,30.14,29.97,9,2,9,0.00
2013-9-10,81.2,74.1,67.7,72.7,68.1,60.6,91,82,73,30.05,29.93,10,2,10,0.00
2013-9-11,92.7,81.0,71.6,77.1,73.1,69.8,96,79,57,29.99,29.86,8,2,8,0.00
2013-9-12,84.8,76.5,69.5,74.5,71.6,68.1,96,85,69,29.89,29.56,10,2,10,0.25
2013-9-13,76.0,69.0,60.3,68.5,62.6,51.6,99,81,57,29.72,29.51,13,2,13,0.07
2013-9-14,66.8,60.2,54.0,63.7,49.3,46.8,94,68,55,30.00,29.71,13,2,13,0.00
2013-9-15,71.8,59.8,47.9,57.4,49.0,43.2,94,71,37,30.10,29.97,5,1,7,0.00
2013-9-16,70.4,63.7,58.7,59.9,55.4,48.9,93,76,53,30.11,29.91,15,2,15,0.02
2013-9-17,62.8,55.4,48.6,48.9,40.9,37.4,84,59,41,30.32,30.11,17,4,17,0.00
2013-9-18,67.3,57.3,45.0,52.9,46.4,42.8,95,70,43,30.23,30.07,5,0,5,0.00
2013-9-19,76.7,62.1,47.7,56.7,51.9,46.1,96,72,40,30.08,29.96,5,1,5,0.00
2013-9-20,77.9,67.1,60.7,62.7,58.1,48.5,92,74,50,29.98,29.84,7,2,7,0.00
2013-9-21,74.9,66.2,54.5,69.4,63.5,53.4,97,91,79,29.85,29.51,14,3,14,0.26
2013-9-22,69.8,64.7,55.6,68.3,55.6,44.4,98,75,49,29.73,29.47,14,3,14,0.77
2013-9-23,64.4,56.7,49.7,47.3,43.9,40.7,80,63,47,29.88,29.73,14,3,14,0.00
2013-9-24,70.6,58.2,45.7,49.1,45.4,40.9,86,64,41,29.89,29.71,7,1,8,0.00
2013-9-25,70.6,60.3,49.9,50.9,48.0,44.4,87,66,43,29.79,29.71,11,2,11,0.00
2013-9-26,69.1,60.5,52.0,60.6,55.4,49.9,97,84,63,29.94,29.77,11,2,11,0.00
2013-9-27,66.6,59.3,50.9,56.7,53.0,49.6,97,81,63,30.08,29.93,9,2,9,0.00
2013-9-28,71.3,63.0,53.5,56.8,53.8,51.2,95,73,52,30.16,30.04,12,2,12,0.00
2013-9-29,69.1,62.4,52.4,58.7,52.4,47.5,97,72,46,30.07,29.92,9,2,12,0.00
2013-9-30,70.9,60.2,50.9,58.5,53.4,49.3,97,80,52,29.92,29.81,10,1,10,0.00
2013-10-1,78.7,64.8,51.5,59.9,55.3,50.1,97,75,44,29.83,29.72,8,1,8,0.00
2013-10-2,81.4,69.0,56.3,63.5,60.2,55.2,97,75,53,29.83,26.77,7,1,7,0.00
2013-10-3,77.4,67.1,56.0,62.6,56.5,52.8,96,71,46,29.95,29.83,7,1,7,0.00
2013-10-4,84.2,70.0,60.7,68.8,62.5,57.1,94,78,56,29.93,29.81,7,1,7,0.00
2013-10-5,74.7,67.5,64.1,66.9,64.2,62.6,96,90,75,29.97,29.88,8,2,8,0.00
2013-10-6,68.9,65.6,64.3,67.8,65.1,63.6,99,98,96,29.98,29.91,7,2,7,0.00
2013-10-7,75.4,69.0,61.4,70.3,66.2,53.4,97,91,76,29.91,29.67,18,4,18,0.26
2013-10-8,65.2,59.9,54.4,53.6,46.4,42.9,79,62,45,30.21,29.85,11,3,11,0.00
2013-10-9,62.6,58.1,51.3,50.7,48.8,44.7,84,71,62,30.28,30.17,12,3,14,0.00
2013-10-10,74.0,58.8,53.5,68.2,53.8,48.1,90,84,80,30.17,29.74,16,5,16,0.26
2013-10-11,67.5,65.0,59.6,60.4,58.4,50.7,89,79,62,29.78,29.69,14,5,14,0.00
2013-10-12,71.8,63.9,58.9,56.9,49.8,32.2,80,62,25,29.97,29.75,23,6,23,0.02
2013-10-13,63.7,58.5,52.7,54.3,51.6,48.1,86,78,64,30.07,29.95,15,4,15,0.00
2013-10-14,64.6,54.7,46.1,53.1,49.1,43.9,95,82,65,30.06,29.93,10,1,10,0.00
2013-10-15,70.2,57.2,47.3,59.1,50.2,44.2,98,80,43,29.95,29.80,9,1,9,0.00
2013-10-16,66.8,60.2,52.2,59.8,56.3,49.7,94,87,76,29.80,29.60,7,1,7,0.00
2013-10-17,72.9,65.0,61.4,64.6,61.7,59.5,96,89,71,29.61,29.38,6,2,6,0.00
2013-10-18,67.9,62.5,54.2,63.7,50.0,43.7,96,65,43,29.67,29.35,9,2,9,0.01
2013-10-19,64.1,55.3,43.9,51.4,46.9,41.1,94,74,54,29.68,29.49,6,1,6,0.00
2013-10-20,62.3,55.1,44.8,53.5,42.6,34.6,84,64,36,29.75,29.45,8,2,8,0.00
2013-10-21,66.6,53.8,39.8,49.7,41.7,35.5,93,67,33,29.84,29.67,8,1,8,0.00
2013-10-22,68.8,56.8,45.9,55.4,47.1,42.0,95,72,49,29.67,29.43,9,1,9,0.00
2013-10-23,52.6,49.4,43.6,44.2,39.2,35.4,86,69,53,29.50,29.30,11,2,11,0.00
2013-10-24,55.6,47.4,41.4,52.1,32.2,25.6,88,57,34,30.26,29.40,9,2,9,0.00
2013-10-25,53.1,45.9,39.8,34.6,31.8,28.7,75,59,42,30.26,30.03,11,2,11,0.00
2013-10-26,55.8,46.5,33.3,39.1,32.6,29.0,91,61,37,30.26,29.94,12,2,12,0.00
2013-10-27,58.1,50.9,43.0,35.8,33.7,31.2,69,52,37,30.15,29.89,9,1,9,0.00
2013-10-28,61.0,48.7,34.7,40.5,34.6,29.7,89,61,35,30.35,30.15,7,1,7,0.00
2013-10-29,54.0,47.1,40.7,39.3,35.2,31.7,80,64,43,30.45,30.35,8,2,8,0.00
2013-10-30,60.1,51.3,41.6,51.5,45.0,35.9,93,79,68,30.39,30.22,5,1,5,0.00
2013-10-31,65.3,57.7,45.4,61.1,55.0,29.5,97,91,82,30.27,29.53,10,2,10,0.01
2013-11-1,68.6,63.1,55.8,62.8,58.5,54.1,96,85,66,29.52,29.26,11,3,11,0.13
2013-11-2,68.0,59.0,52.0,57.3,49.0,40.6,96,72,44,29.48,29.32,4,1,4,0.00
2013-11-3,55.1,46.7,37.4,43.6,34.9,21.7,81,64,53,30.15,29.47,16,4,16,0.00
2013-11-4,44.3,38.2,34.0,24.7,19.3,14.7,61,47,36,30.36,30.14,14,4,14,0.00
2013-11-5,65.5,46.8,36.4,63.7,36.0,22.8,94,66,56,30.50,29.34,8,1,8,0.00
2013-11-6,61.4,56.0,39.1,56.7,48.9,37.1,94,78,56,29.90,29.47,9,2,9,0.00
2013-11-7,63.7,55.8,42.8,60.4,51.2,31.5,96,85,57,29.48,29.15,14,3,14,0.17
2013-11-8,50.8,44.5,40.9,33.4,28.9,24.1,72,55,36,29.62,29.32,17,5,17,0.00
2013-11-9,49.9,44.6,36.5,36.2,29.2,24.2,71,55,38,29.71,29.42,10,2,10,0.00
2013-11-10,61.4,50.0,42.8,39.9,34.8,29.7,72,57,32,29.46,29.21,17,4,17,0.00
2013-11-11,65.5,49.0,43.0,63.7,29.7,26.1,94,47,39,29.93,29.46,14,4,14,0.00
2013-11-12,51.3,38.9,31.1,37.0,25.9,14.4,90,61,44,30.18,29.83,13,4,16,0.21
2013-11-13,38.3,33.0,28.3,18.6,14.0,9.3,66,47,30,30.27,30.18,14,4,14,0.00
2013-11-14,52.9,43.9,28.3,22.9,19.1,14.8,67,39,24,30.18,30.06,10,2,10,0.00
2013-11-15,58.5,44.5,31.7,58.2,31.3,22.7,99,61,32,30.17,29.66,7,1,7,0.00
2013-11-16,65.5,49.3,40.5,63.7,43.8,33.3,99,82,49,30.00,29.60,8,1,8,0.09
2013-11-17,61.2,55.3,42.3,59.9,54.2,40.7,99,96,92,29.96,29.48,7,2,7,0.05
2013-11-18,66.4,60.6,51.5,59.8,37.1,25.7,99,44,30,29.47,29.28,14,4,14,0.26
2013-11-19,51.3,43.9,35.1,32.2,26.3,21.1,58,50,43,30.01,29.45,24,8,24,0.00
2013-11-20,42.8,35.5,29.0,21.4,16.4,9.2,66,47,25,30.29,30.01,15,4,15,0.00
2013-11-21,50.2,41.8,27.5,43.4,31.4,19.4,82,67,53,30.30,30.07,8,1,8,0.00
2013-11-22,56.3,52.9,49.3,52.4,48.0,42.3,95,84,75,30.07,29.55,6,2,6,0.09
2013-11-23,55.1,42.8,31.3,50.3,25.8,3.5,84,52,30,29.70,29.56,23,7,23,0.00
2013-11-24,31.1,26.1,23.0,3.4,-0.6,-5.1,39,31,24,30.04,29.66,25,10,25,0.00
2013-11-25,65.5,28.3,22.5,63.7,10.2,1.9,99,46,38,30.16,29.50,18,5,18,0.00
2013-11-26,52.0,38.5,33.7,51.5,26.6,14.6,99,64,44,29.92,29.37,17,2,17,0.33
2013-11-27,62.3,51.1,35.3,61.4,49.9,19.8,99,96,53,29.76,28.90,22,7,22,1.05
2013-11-28,65.5,32.0,27.4,63.7,14.3,4.8,99,48,29,30.02,29.30,24,6,24,0.00
2013-11-29,38.9,32.8,29.3,20.0,17.6,13.8,64,53,43,30.27,30.01,10,2,10,0.00
2013-11-30,37.6,30.9,23.4,22.3,15.5,10.2,66,53,35,30.32,30.13,8,2,8,0.00
2013-12-1,50.0,44.3,37.1,38.3,34.7,29.1,85,69,60,29.91,29.55,5,1,5,0.00
2013-12-2,47.3,40.0,31.3,40.5,35.9,8.7,90,85,38,30.41,29.45,3,1,3,0.00
2013-12-3,65.5,41.0,34.6,63.7,36.0,30.6,99,83,55,29.98,29.89,8,2,8,16.96
2013-12-4,52.0,42.8,34.6,41.5,35.9,30.2,90,77,60,30.12,29.97,6,1,6,0.00
2013-12-5,57.2,54.9,49.0,55.8,53.6,45.6,97,95,88,30.10,29.97,7,2,7,0.02
2013-12-6,55.4,43.6,35.6,54.6,42.5,33.3,99,96,91,30.11,29.86,18,4,18,0.41
2013-12-7,41.2,36.0,31.9,35.0,29.9,16.9,93,80,50,30.48,30.05,12,4,12,0.11
2013-12-8,32.6,30.5,27.5,27.9,18.5,13.3,87,61,52,31.32,30.35,10,3,10,0.00
2013-12-9,40.3,36.6,31.5,39.5,35.1,27.8,98,94,87,30.35,29.91,12,4,12,0.13
2013-12-10,36.5,33.5,30.2,33.8,29.2,16.5,91,85,56,30.08,29.82,11,1,11,0.02
2013-12-11,34.4,31.1,26.5,16.3,14.2,10.0,55,49,43,30.30,30.10,11,4,11,0.00
2013-12-12,29.0,25.2,23.0,14.0,0.7,-3.2,53,34,27,30.33,30.13,14,5,14,0.00
2013-12-13,34.6,28.5,23.2,16.7,8.1,-0.7,59,42,34,30.31,30.10,13,6,13,0.00
2013-12-14,36.4,27.1,23.6,34.0,20.8,12.9,92,77,57,30.48,29.76,15,6,15,0.01
2013-12-15,43.0,36.4,31.0,42.2,28.8,18.9,97,75,55,29.82,29.44,17,5,17,0.63
2013-12-16,33.3,28.6,20.9,20.6,8.7,1.9,60,43,32,30.21,29.81,18,4,18,0.00
2013-12-17,32.4,26.1,20.2,28.8,17.2,6.3,88,70,47,30.21,29.89,10,2,10,0.00
2013-12-18,37.1,31.1,23.2,23.7,20.2,16.8,79,64,51,30.14,29.89,7,0,7,0.02
2013-12-19,70.2,44.8,39.6,69.0,30.5,23.0,99,58,45,29.92,29.67,11,3,11,0.09
2013-12-20,52.4,42.8,32.8,39.3,31.6,25.7,83,66,45,29.90,29.77,6,1,6,0.00
2013-12-21,60.7,53.5,42.1,49.9,46.5,39.2,92,78,64,29.81,29.71,9,3,9,0.00
2013-12-22,65.7,57.3,51.7,59.6,54.0,48.1,95,89,74,29.76,29.62,10,4,10,0.00
2013-12-23,58.7,54.3,50.0,57.0,52.0,48.4,95,92,86,29.85,29.67,8,1,8,0.37
2013-12-24,40.9,33.3,26.5,35.8,19.3,0.5,82,57,32,30.12,29.88,18,6,18,0.01
2013-12-25,26.6,22.1,18.7,5.1,3.0,0.5,49,43,33,30.32,30.12,21,6,21,0.00
2013-12-26,37.3,32.0,25.9,25.1,19.7,10.2,69,60,48,30.22,29.95,5,2,5,0.00
2013-12-27,41.0,35.4,29.5,22.7,19.8,15.6,66,53,39,30.15,30.06,10,2,10,0.00
2013-12-28,55.3,42.9,27.2,29.4,25.0,17.1,77,51,31,30.08,29.86,11,2,11,0.00
2013-12-29,48.6,42.3,36.7,47.0,38.3,24.5,94,86,54,29.86,29.16,17,4,17,0.87
2013-12-30,44.6,36.8,23.4,39.6,27.8,6.1,91,72,42,29.98,29.47,13,4,13,0.00
2013-12-31,32.4,25.3,20.9,19.6,8.8,2.1,61,49,34,30.07,29.87,15,3,15,0.00
2014-1-1,30.4,26.5,22.3,12.8,7.6,1.0,51,44,34,30.21,30.07,11,4,11,0.00
2014-1-2,32.0,24.7,17.1,23.6,18.3,10.9,83,77,55,30.05,29.45,25,9,25,0.00